Linzy — SIRU — position and weather

sailwx.info

Track history (hours):
 
Tides and Currents Weather Stations Pressure Air Temp Water Temp Dewpoint Dewpoint Depression Visibility Wind Speed Wind Dir Waves Ship Positions

Linzy

Last reported at 2014-Dec-22 22:33 UTC. Time now 2014-Dec-22 23:26 UTC.
Position N 55°33' E 014°21'.

Length 15 m.

Type: Fishing. MMSI: 265507290.

Date/timePositionNaut miles runAvg speedWind from/ knotsBaromVisibWave heightAir tempDewpointWater temp
2014-Dec-22 22:33N 55°33' E 014°21'0 0.0
2014-Dec-22 21:33N 55°33' E 014°21'0 0.0
2014-Dec-22 20:33N 55°33' E 014°21'0 0.0
2014-Dec-22 19:15N 55°33' E 014°21'0 0.0
2014-Dec-22 17:15N 55°33' E 014°21'0 0.0
2014-Dec-22 16:15N 55°33' E 014°21'0 0.0
2014-Dec-22 15:33N 55°33' E 014°21'0 0.0
2014-Dec-22 14:33N 55°33' E 014°21'0 0.0
2014-Dec-22 13:27N 55°33' E 014°21'0 0.0
2014-Dec-22 12:27N 55°33' E 014°21'0 0.0
2014-Dec-22 11:33N 55°33' E 014°21'0 0.0
2014-Dec-22 10:33N 55°33' E 014°21'0 0.0
2014-Dec-22 09:33N 55°33' E 014°21'0 0.0
2014-Dec-22 08:33N 55°33' E 014°21'0 0.0
2014-Dec-22 07:33N 55°33' E 014°21'0 0.0
2014-Dec-22 06:27N 55°33' E 014°21'0 0.0
2014-Dec-22 05:33N 55°33' E 014°21'0 0.0
2014-Dec-22 04:33N 55°33' E 014°21'0 0.0
2014-Dec-22 03:33N 55°33' E 014°21'0 0.0
2014-Dec-22 02:21N 55°33' E 014°21'0 0.0
2014-Dec-22 01:33N 55°33' E 014°21'0 0.0
2014-Dec-22 00:33N 55°33' E 014°21'0 0.0
2014-Dec-21 23:33N 55°33' E 014°21'0 0.0
2014-Dec-21 22:21N 55°33' E 014°21'0 0.0
2014-Dec-21 21:33N 55°33' E 014°21'0 0.0
2014-Dec-21 20:33N 55°33' E 014°21'0 0.0
2014-Dec-21 19:33N 55°33' E 014°21'0 0.0
2014-Dec-21 18:33N 55°33' E 014°21'0 0.0
2014-Dec-21 17:33N 55°33' E 014°21'0 0.0
2014-Dec-21 16:33N 55°33' E 014°21'0 0.0
2014-Dec-21 15:27N 55°33' E 014°21'1 1.4
2014-Dec-21 14:33N 55°35' E 014°22'3 3.3
2014-Dec-21 13:32N 55°37' E 014°26'2 1.6
2014-Dec-21 12:33N 55°38' E 014°29'3 2.6
2014-Dec-21 11:28N 55°38' E 014°34'3 2.8
2014-Dec-21 10:33N 55°39' E 014°37'3 2.5
2014-Dec-21 09:27N 55°41' E 014°33'10 2.5
2014-Dec-21 05:23N 55°33' E 014°21'0 0.0
2014-Dec-21 04:23N 55°33' E 014°21'0 0.0
2014-Dec-21 03:29N 55°33' E 014°21'0 0.0
2014-Dec-21 02:29N 55°33' E 014°21'0 0.0
2014-Dec-21 01:29N 55°33' E 014°21'0 0.0
2014-Dec-21 00:29N 55°33' E 014°21'0 0.0
2014-Dec-20 23:29N 55°33' E 014°21'0 0.0
2014-Dec-20 22:29N 55°33' E 014°21'0 0.0
2014-Dec-20 21:29N 55°33' E 014°21'0 0.0
2014-Dec-20 20:29N 55°33' E 014°21'0 0.0
2014-Dec-20 19:29N 55°33' E 014°21'0 0.0
2014-Dec-20 18:29N 55°33' E 014°21'0 0.0
2014-Dec-20 17:23N 55°33' E 014°21'0 0.0
2014-Dec-20 16:29N 55°33' E 014°21'0 0.0
2014-Dec-20 15:23N 55°33' E 014°21'0 0.0
2014-Dec-20 14:29N 55°33' E 014°21'0 0.0
2014-Dec-20 12:29N 55°33' E 014°21'0 0.0
2014-Dec-20 11:23N 55°33' E 014°21'0 0.0
2014-Dec-20 10:29N 55°33' E 014°21'0 0.0
2014-Dec-20 09:23N 55°33' E 014°21'0 0.0
2014-Dec-20 08:29N 55°33' E 014°21'0 0.0
2014-Dec-20 07:29N 55°33' E 014°21'0 0.0
2014-Dec-20 06:29N 55°33' E 014°21'0 0.0
2014-Dec-20 05:29N 55°33' E 014°21'0 0.0
2014-Dec-20 04:23N 55°33' E 014°21'0 0.0
2014-Dec-20 03:29N 55°33' E 014°21'0 0.0
2014-Dec-20 02:29N 55°33' E 014°21'0 0.0
2014-Dec-20 01:29N 55°33' E 014°21'0 0.0
2014-Dec-20 00:29N 55°33' E 014°21'0 0.0
2014-Dec-19 23:29N 55°33' E 014°21'0 0.0
2014-Dec-19 22:29N 55°33' E 014°21'0 0.0
2014-Dec-19 21:29N 55°33' E 014°21'0 0.0
2014-Dec-19 20:29N 55°33' E 014°21'0 0.0
2014-Dec-19 19:23N 55°33' E 014°21'0 0.0
2014-Dec-19 18:29N 55°33' E 014°21'0 0.0
2014-Dec-19 17:23N 55°33' E 014°21'0 0.0
2014-Dec-19 16:29N 55°33' E 014°21'0 0.0
2014-Dec-19 15:29N 55°33' E 014°21'1 0.6
2014-Dec-19 14:27N 55°33' E 014°23'2 2.2
2014-Dec-19 13:31N 55°35' E 014°24'3 3.3
2014-Dec-19 12:33N 55°37' E 014°28'3 2.6
2014-Dec-19 11:30N 55°38' E 014°33'3 3.0
2014-Dec-19 10:33N 55°39' E 014°37'3 2.5
2014-Dec-19 09:30N 55°41' E 014°34'3 3.0
2014-Dec-19 08:33N 55°41' E 014°29'9 2.9
2014-Dec-19 05:31N 55°34' E 014°22'0 0.3
2014-Dec-19 04:31N 55°33' E 014°21'0 0.0
2014-Dec-19 03:25N 55°33' E 014°21'0 0.0
2014-Dec-19 02:31N 55°33' E 014°21'0 0.0
2014-Dec-19 00:31N 55°33' E 014°21'0 0.0
2014-Dec-18 23:25N 55°33' E 014°21'0 0.0
2014-Dec-18 22:31N 55°33' E 014°21'0 0.0
2014-Dec-18 21:31N 55°33' E 014°21'0 0.0
2014-Dec-18 20:31N 55°33' E 014°21'0 0.0
2014-Dec-18 19:31N 55°33' E 014°21'0 0.0
2014-Dec-18 18:31N 55°33' E 014°21'0 0.0
2014-Dec-18 17:31N 55°33' E 014°21'0 0.0
2014-Dec-18 16:31N 55°33' E 014°21'0 0.0
2014-Dec-18 15:31N 55°33' E 014°21'0 0.5
2014-Dec-18 14:33N 55°34' E 014°22'3 2.8
2014-Dec-18 13:33N 55°36' E 014°25'2 2.1
2014-Dec-18 12:33N 55°37' E 014°28'3 3.1
2014-Dec-18 11:29N 55°38' E 014°34'3 2.8
2014-Dec-18 10:31N 55°40' E 014°37'3 2.7
2014-Dec-18 09:21N 55°41' E 014°32'10 2.5
2014-Dec-18 05:23N 55°33' E 014°21'0 0.0
2014-Dec-18 04:30N 55°33' E 014°21'0 0.0
2014-Dec-18 03:30N 55°33' E 014°21'0 0.0
2014-Dec-18 02:30N 55°33' E 014°21'0 0.0
2014-Dec-18 01:30N 55°33' E 014°21'0 0.0
2014-Dec-18 00:30N 55°33' E 014°21'0 0.0
2014-Dec-17 23:30N 55°33' E 014°21'0 0.0
2014-Dec-17 22:30N 55°33' E 014°21'0 0.0
2014-Dec-17 21:30N 55°33' E 014°21'0 0.0
2014-Dec-17 20:30N 55°33' E 014°21'0 0.0
2014-Dec-17 19:24N 55°33' E 014°21'0 0.0
2014-Dec-17 18:24N 55°33' E 014°21'0 0.0
2014-Dec-17 17:30N 55°33' E 014°21'0 0.0
2014-Dec-17 16:30N 55°33' E 014°21'0 0.0
2014-Dec-17 15:24N 55°33' E 014°21'0 0.0
2014-Dec-17 14:30N 55°33' E 014°21'0 0.0
2014-Dec-17 13:24N 55°33' E 014°21'0 0.0
2014-Dec-17 12:30N 55°33' E 014°21'0 0.0
2014-Dec-17 11:30N 55°33' E 014°21'0 0.0
2014-Dec-17 10:30N 55°33' E 014°21'0 0.0
2014-Dec-17 09:18N 55°33' E 014°21'0 0.0
2014-Dec-17 08:30N 55°33' E 014°21'0 0.0
2014-Dec-17 07:30N 55°33' E 014°21'0 0.0
2014-Dec-17 06:30N 55°33' E 014°21'0 0.0
2014-Dec-17 05:30N 55°33' E 014°21'0 0.0
2014-Dec-17 04:30N 55°33' E 014°21'0 0.0
2014-Dec-17 03:18N 55°33' E 014°21'0 0.0
2014-Dec-17 02:18N 55°33' E 014°21'0 0.0
2014-Dec-17 00:12N 55°33' E 014°21'0 0.0
2014-Dec-16 23:30N 55°33' E 014°21'0 0.0
2014-Dec-16 22:24N 55°33' E 014°21'0 0.0
2014-Dec-16 21:30N 55°33' E 014°21'0 0.0
2014-Dec-16 20:30N 55°33' E 014°21'0 0.0
2014-Dec-16 19:30N 55°33' E 014°21'0 0.0
2014-Dec-16 18:30N 55°33' E 014°21'0 0.0
2014-Dec-16 17:30N 55°33' E 014°21'0 0.0
2014-Dec-16 16:30N 55°33' E 014°21'0 0.0
2014-Dec-16 15:30N 55°33' E 014°21'0 0.0
2014-Dec-16 14:30N 55°33' E 014°21'0 0.0
2014-Dec-16 13:30N 55°33' E 014°21'0 0.0
2014-Dec-16 12:30N 55°33' E 014°21'0 0.0
2014-Dec-16 11:30N 55°33' E 014°21'0 0.0
2014-Dec-16 10:30N 55°33' E 014°21'0 0.0
2014-Dec-16 09:30N 55°33' E 014°21'0 0.0
2014-Dec-16 08:30N 55°33' E 014°21'0 0.0
2014-Dec-16 07:30N 55°33' E 014°21'0 0.0
2014-Dec-16 06:30N 55°33' E 014°21'0 0.0
2014-Dec-16 04:18N 55°33' E 014°21'0 0.0
2014-Dec-16 03:30N 55°33' E 014°21'0 0.0
2014-Dec-15 23:12N 55°33' E 014°21'0 0.0
2014-Dec-15 22:30N 55°33' E 014°21'0 0.0
2014-Dec-15 21:18N 55°33' E 014°21'0 0.0
2014-Dec-15 20:30N 55°33' E 014°21'0 0.0
2014-Dec-15 19:24N 55°33' E 014°21'0 0.0
2014-Dec-15 18:30N 55°33' E 014°21'0 0.0
2014-Dec-15 17:30N 55°33' E 014°21'0 0.0
2014-Dec-15 16:30N 55°33' E 014°21'0 0.0
2014-Dec-15 15:30N 55°33' E 014°21'0 0.0
2014-Dec-15 14:24N 55°33' E 014°21'0 0.0
2014-Dec-15 13:24N 55°33' E 014°21'0 0.0
2014-Dec-15 12:24N 55°33' E 014°21'0 0.0
2014-Dec-15 11:30N 55°33' E 014°21'0 0.0
2014-Dec-15 10:30N 55°33' E 014°21'0 0.0
2014-Dec-15 09:30N 55°33' E 014°21'0 0.0
2014-Dec-15 08:30N 55°33' E 014°21'0 0.0
2014-Dec-15 07:30N 55°33' E 014°21'0 0.0
2014-Dec-15 06:30N 55°33' E 014°21'0 0.0
2014-Dec-15 05:30N 55°33' E 014°21'0 0.0
2014-Dec-15 04:30N 55°33' E 014°21'0 0.0
2014-Dec-15 03:30N 55°33' E 014°21'0 0.0
2014-Dec-15 02:30N 55°33' E 014°21'0 0.0
2014-Dec-15 00:12N 55°33' E 014°21'0 0.0
2014-Dec-14 23:30N 55°33' E 014°21'0 0.0
2014-Dec-14 22:24N 55°33' E 014°21'0 0.0
2014-Dec-14 21:30N 55°33' E 014°21'0 0.0
2014-Dec-14 20:30N 55°33' E 014°21'0 0.0
2014-Dec-14 19:30N 55°33' E 014°21'0 0.0
2014-Dec-14 18:30N 55°33' E 014°21'0 0.0
2014-Dec-14 17:30N 55°33' E 014°21'0 0.0
2014-Dec-14 16:30N 55°33' E 014°21'0 0.0
2014-Dec-14 15:24N 55°33' E 014°21'0 0.0
2014-Dec-14 14:30N 55°33' E 014°21'0 0.0
2014-Dec-14 13:30N 55°33' E 014°21'0 0.0
2014-Dec-14 12:30N 55°33' E 014°21'0 0.0
2014-Dec-14 11:30N 55°33' E 014°21'0 0.0
2014-Dec-14 10:30N 55°33' E 014°21'0 0.0
2014-Dec-14 09:30N 55°33' E 014°21'0 0.0
2014-Dec-14 08:30N 55°33' E 014°21'0 0.0
2014-Dec-14 07:30N 55°33' E 014°21'0 0.0
2014-Dec-14 06:24N 55°33' E 014°21'0 0.0
2014-Dec-14 05:30N 55°33' E 014°21'0 0.0
2014-Dec-14 04:30N 55°33' E 014°21'0 0.0
2014-Dec-14 03:24N 55°33' E 014°21'0 0.0
2014-Dec-14 02:24N 55°33' E 014°21'0 0.0
2014-Dec-14 01:30N 55°33' E 014°21'0 0.0
2014-Dec-14 00:30N 55°33' E 014°21'0 0.0
2014-Dec-13 23:18N 55°33' E 014°21'0 0.0
2014-Dec-13 22:30N 55°33' E 014°21'0 0.0
2014-Dec-13 21:30N 55°33' E 014°21'0 0.0
2014-Dec-13 20:30N 55°33' E 014°21'0 0.0
2014-Dec-13 19:24N 55°33' E 014°21'0 0.0
2014-Dec-13 18:30N 55°33' E 014°21'0 0.0
2014-Dec-13 17:24N 55°33' E 014°21'0 0.0
2014-Dec-13 16:30N 55°33' E 014°21'0 0.0
2014-Dec-13 15:30N 55°33' E 014°21'0 0.0
2014-Dec-13 14:30N 55°33' E 014°21'0 0.0
2014-Dec-13 13:30N 55°33' E 014°21'0 0.0
2014-Dec-13 12:30N 55°33' E 014°21'0 0.0
2014-Dec-13 11:31N 55°33' E 014°21'0 0.0
2014-Dec-13 10:31N 55°33' E 014°21'0 0.0
2014-Dec-13 09:19N 55°33' E 014°21'0 0.0
2014-Dec-13 08:31N 55°33' E 014°21'0 0.0
2014-Dec-13 07:07N 55°33' E 014°21'0 0.0
2014-Dec-13 06:19N 55°33' E 014°21'0 0.0
2014-Dec-13 05:31N 55°33' E 014°21'0 0.0
2014-Dec-13 04:31N 55°33' E 014°21'0 0.0
2014-Dec-13 03:31N 55°33' E 014°21'0 0.0
2014-Dec-13 02:13N 55°33' E 014°21'0 0.0
2014-Dec-13 01:31N 55°33' E 014°21'0 0.0
2014-Dec-13 00:13N 55°33' E 014°21'0 0.0
2014-Dec-12 23:25N 55°33' E 014°21'  
Track history (hours):
 
Tides and Currents Weather Stations Pressure Air Temp Water Temp Dewpoint Dewpoint Depression Visibility Wind Speed Wind Dir Waves Ship Positions

Linzy

Last reported at 2014-Dec-22 22:33 UTC. Time now 2014-Dec-22 23:26 UTC.
Position N 55°33' E 014°21'.

Length 15 m.

Type: Fishing. MMSI: 265507290.

Date/timePositionNaut miles runAvg speedWind from/ knotsBaromVisibWave heightAir tempDewpointWater temp
2014-Dec-22 22:33N 55°33' E 014°21'0 0.0
2014-Dec-22 21:33N 55°33' E 014°21'0 0.0
2014-Dec-22 20:33N 55°33' E 014°21'0 0.0
2014-Dec-22 19:15N 55°33' E 014°21'0 0.0
2014-Dec-22 17:15N 55°33' E 014°21'0 0.0
2014-Dec-22 16:15N 55°33' E 014°21'0 0.0
2014-Dec-22 15:33N 55°33' E 014°21'0 0.0
2014-Dec-22 14:33N 55°33' E 014°21'0 0.0
2014-Dec-22 13:27N 55°33' E 014°21'0 0.0
2014-Dec-22 12:27N 55°33' E 014°21'0 0.0
2014-Dec-22 11:33N 55°33' E 014°21'0 0.0
2014-Dec-22 10:33N 55°33' E 014°21'0 0.0
2014-Dec-22 09:33N 55°33' E 014°21'0 0.0
2014-Dec-22 08:33N 55°33' E 014°21'0 0.0
2014-Dec-22 07:33N 55°33' E 014°21'0 0.0
2014-Dec-22 06:27N 55°33' E 014°21'0 0.0
2014-Dec-22 05:33N 55°33' E 014°21'0 0.0
2014-Dec-22 04:33N 55°33' E 014°21'0 0.0
2014-Dec-22 03:33N 55°33' E 014°21'0 0.0
2014-Dec-22 02:21N 55°33' E 014°21'0 0.0
2014-Dec-22 01:33N 55°33' E 014°21'0 0.0
2014-Dec-22 00:33N 55°33' E 014°21'0 0.0
2014-Dec-21 23:33N 55°33' E 014°21'0 0.0
2014-Dec-21 22:21N 55°33' E 014°21'0 0.0
2014-Dec-21 21:33N 55°33' E 014°21'0 0.0
2014-Dec-21 20:33N 55°33' E 014°21'0 0.0
2014-Dec-21 19:33N 55°33' E 014°21'0 0.0
2014-Dec-21 18:33N 55°33' E 014°21'0 0.0
2014-Dec-21 17:33N 55°33' E 014°21'0 0.0
2014-Dec-21 16:33N 55°33' E 014°21'0 0.0
2014-Dec-21 15:27N 55°33' E 014°21'1 1.4
2014-Dec-21 14:33N 55°35' E 014°22'3 3.3
2014-Dec-21 13:32N 55°37' E 014°26'2 1.6
2014-Dec-21 12:33N 55°38' E 014°29'3 2.6
2014-Dec-21 11:28N 55°38' E 014°34'3 2.8
2014-Dec-21 10:33N 55°39' E 014°37'3 2.5
2014-Dec-21 09:27N 55°41' E 014°33'10 2.5
2014-Dec-21 05:23N 55°33' E 014°21'0 0.0
2014-Dec-21 04:23N 55°33' E 014°21'0 0.0
2014-Dec-21 03:29N 55°33' E 014°21'0 0.0
2014-Dec-21 02:29N 55°33' E 014°21'0 0.0
2014-Dec-21 01:29N 55°33' E 014°21'0 0.0
2014-Dec-21 00:29N 55°33' E 014°21'0 0.0
2014-Dec-20 23:29N 55°33' E 014°21'0 0.0
2014-Dec-20 22:29N 55°33' E 014°21'0 0.0
2014-Dec-20 21:29N 55°33' E 014°21'0 0.0
2014-Dec-20 20:29N 55°33' E 014°21'0 0.0
2014-Dec-20 19:29N 55°33' E 014°21'0 0.0
2014-Dec-20 18:29N 55°33' E 014°21'0 0.0
2014-Dec-20 17:23N 55°33' E 014°21'0 0.0
2014-Dec-20 16:29N 55°33' E 014°21'0 0.0
2014-Dec-20 15:23N 55°33' E 014°21'0 0.0
2014-Dec-20 14:29N 55°33' E 014°21'0 0.0
2014-Dec-20 12:29N 55°33' E 014°21'0 0.0
2014-Dec-20 11:23N 55°33' E 014°21'0 0.0
2014-Dec-20 10:29N 55°33' E 014°21'0 0.0
2014-Dec-20 09:23N 55°33' E 014°21'0 0.0
2014-Dec-20 08:29N 55°33' E 014°21'0 0.0
2014-Dec-20 07:29N 55°33' E 014°21'0 0.0
2014-Dec-20 06:29N 55°33' E 014°21'0 0.0
2014-Dec-20 05:29N 55°33' E 014°21'0 0.0
2014-Dec-20 04:23N 55°33' E 014°21'0 0.0
2014-Dec-20 03:29N 55°33' E 014°21'0 0.0
2014-Dec-20 02:29N 55°33' E 014°21'0 0.0
2014-Dec-20 01:29N 55°33' E 014°21'0 0.0
2014-Dec-20 00:29N 55°33' E 014°21'0 0.0
2014-Dec-19 23:29N 55°33' E 014°21'0 0.0
2014-Dec-19 22:29N 55°33' E 014°21'0 0.0
2014-Dec-19 21:29N 55°33' E 014°21'0 0.0
2014-Dec-19 20:29N 55°33' E 014°21'0 0.0
2014-Dec-19 19:23N 55°33' E 014°21'0 0.0
2014-Dec-19 18:29N 55°33' E 014°21'0 0.0
2014-Dec-19 17:23N 55°33' E 014°21'0 0.0
2014-Dec-19 16:29N 55°33' E 014°21'0 0.0
2014-Dec-19 15:29N 55°33' E 014°21'1 0.6
2014-Dec-19 14:27N 55°33' E 014°23'2 2.2
2014-Dec-19 13:31N 55°35' E 014°24'3 3.3
2014-Dec-19 12:33N 55°37' E 014°28'3 2.6
2014-Dec-19 11:30N 55°38' E 014°33'3 3.0
2014-Dec-19 10:33N 55°39' E 014°37'3 2.5
2014-Dec-19 09:30N 55°41' E 014°34'3 3.0
2014-Dec-19 08:33N 55°41' E 014°29'9 2.9
2014-Dec-19 05:31N 55°34' E 014°22'0 0.3
2014-Dec-19 04:31N 55°33' E 014°21'0 0.0
2014-Dec-19 03:25N 55°33' E 014°21'0 0.0
2014-Dec-19 02:31N 55°33' E 014°21'0 0.0
2014-Dec-19 00:31N 55°33' E 014°21'0 0.0
2014-Dec-18 23:25N 55°33' E 014°21'0 0.0
2014-Dec-18 22:31N 55°33' E 014°21'0 0.0
2014-Dec-18 21:31N 55°33' E 014°21'0 0.0
2014-Dec-18 20:31N 55°33' E 014°21'0 0.0
2014-Dec-18 19:31N 55°33' E 014°21'0 0.0
2014-Dec-18 18:31N 55°33' E 014°21'0 0.0
2014-Dec-18 17:31N 55°33' E 014°21'0 0.0
2014-Dec-18 16:31N 55°33' E 014°21'0 0.0
2014-Dec-18 15:31N 55°33' E 014°21'0 0.5
2014-Dec-18 14:33N 55°34' E 014°22'3 2.8
2014-Dec-18 13:33N 55°36' E 014°25'2 2.1
2014-Dec-18 12:33N 55°37' E 014°28'3 3.1
2014-Dec-18 11:29N 55°38' E 014°34'3 2.8
2014-Dec-18 10:31N 55°40' E 014°37'3 2.7
2014-Dec-18 09:21N 55°41' E 014°32'10 2.5
2014-Dec-18 05:23N 55°33' E 014°21'0 0.0
2014-Dec-18 04:30N 55°33' E 014°21'0 0.0
2014-Dec-18 03:30N 55°33' E 014°21'0 0.0
2014-Dec-18 02:30N 55°33' E 014°21'0 0.0
2014-Dec-18 01:30N 55°33' E 014°21'0 0.0
2014-Dec-18 00:30N 55°33' E 014°21'0 0.0
2014-Dec-17 23:30N 55°33' E 014°21'0 0.0
2014-Dec-17 22:30N 55°33' E 014°21'0 0.0
2014-Dec-17 21:30N 55°33' E 014°21'0 0.0
2014-Dec-17 20:30N 55°33' E 014°21'0 0.0
2014-Dec-17 19:24N 55°33' E 014°21'0 0.0
2014-Dec-17 18:24N 55°33' E 014°21'0 0.0
2014-Dec-17 17:30N 55°33' E 014°21'0 0.0
2014-Dec-17 16:30N 55°33' E 014°21'0 0.0
2014-Dec-17 15:24N 55°33' E 014°21'0 0.0
2014-Dec-17 14:30N 55°33' E 014°21'0 0.0
2014-Dec-17 13:24N 55°33' E 014°21'0 0.0
2014-Dec-17 12:30N 55°33' E 014°21'0 0.0
2014-Dec-17 11:30N 55°33' E 014°21'0 0.0
2014-Dec-17 10:30N 55°33' E 014°21'0 0.0
2014-Dec-17 09:18N 55°33' E 014°21'0 0.0
2014-Dec-17 08:30N 55°33' E 014°21'0 0.0
2014-Dec-17 07:30N 55°33' E 014°21'0 0.0
2014-Dec-17 06:30N 55°33' E 014°21'0 0.0
2014-Dec-17 05:30N 55°33' E 014°21'0 0.0
2014-Dec-17 04:30N 55°33' E 014°21'0 0.0
2014-Dec-17 03:18N 55°33' E 014°21'0 0.0
2014-Dec-17 02:18N 55°33' E 014°21'0 0.0
2014-Dec-17 00:12N 55°33' E 014°21'0 0.0
2014-Dec-16 23:30N 55°33' E 014°21'0 0.0
2014-Dec-16 22:24N 55°33' E 014°21'0 0.0
2014-Dec-16 21:30N 55°33' E 014°21'0 0.0
2014-Dec-16 20:30N 55°33' E 014°21'0 0.0
2014-Dec-16 19:30N 55°33' E 014°21'0 0.0
2014-Dec-16 18:30N 55°33' E 014°21'0 0.0
2014-Dec-16 17:30N 55°33' E 014°21'0 0.0
2014-Dec-16 16:30N 55°33' E 014°21'0 0.0
2014-Dec-16 15:30N 55°33' E 014°21'0 0.0
2014-Dec-16 14:30N 55°33' E 014°21'0 0.0
2014-Dec-16 13:30N 55°33' E 014°21'0 0.0
2014-Dec-16 12:30N 55°33' E 014°21'0 0.0
2014-Dec-16 11:30N 55°33' E 014°21'0 0.0
2014-Dec-16 10:30N 55°33' E 014°21'0 0.0
2014-Dec-16 09:30N 55°33' E 014°21'0 0.0
2014-Dec-16 08:30N 55°33' E 014°21'0 0.0
2014-Dec-16 07:30N 55°33' E 014°21'0 0.0
2014-Dec-16 06:30N 55°33' E 014°21'0 0.0
2014-Dec-16 04:18N 55°33' E 014°21'0 0.0
2014-Dec-16 03:30N 55°33' E 014°21'0 0.0
2014-Dec-15 23:12N 55°33' E 014°21'0 0.0
2014-Dec-15 22:30N 55°33' E 014°21'0 0.0
2014-Dec-15 21:18N 55°33' E 014°21'0 0.0
2014-Dec-15 20:30N 55°33' E 014°21'0 0.0
2014-Dec-15 19:24N 55°33' E 014°21'0 0.0
2014-Dec-15 18:30N 55°33' E 014°21'0 0.0
2014-Dec-15 17:30N 55°33' E 014°21'0 0.0
2014-Dec-15 16:30N 55°33' E 014°21'0 0.0
2014-Dec-15 15:30N 55°33' E 014°21'0 0.0
2014-Dec-15 14:24N 55°33' E 014°21'0 0.0
2014-Dec-15 13:24N 55°33' E 014°21'0 0.0
2014-Dec-15 12:24N 55°33' E 014°21'0 0.0
2014-Dec-15 11:30N 55°33' E 014°21'0 0.0
2014-Dec-15 10:30N 55°33' E 014°21'0 0.0
2014-Dec-15 09:30N 55°33' E 014°21'0 0.0
2014-Dec-15 08:30N 55°33' E 014°21'0 0.0
2014-Dec-15 07:30N 55°33' E 014°21'0 0.0
2014-Dec-15 06:30N 55°33' E 014°21'0 0.0
2014-Dec-15 05:30N 55°33' E 014°21'0 0.0
2014-Dec-15 04:30N 55°33' E 014°21'0 0.0
2014-Dec-15 03:30N 55°33' E 014°21'0 0.0
2014-Dec-15 02:30N 55°33' E 014°21'0 0.0
2014-Dec-15 00:12N 55°33' E 014°21'0 0.0
2014-Dec-14 23:30N 55°33' E 014°21'0 0.0
2014-Dec-14 22:24N 55°33' E 014°21'0 0.0
2014-Dec-14 21:30N 55°33' E 014°21'0 0.0
2014-Dec-14 20:30N 55°33' E 014°21'0 0.0
2014-Dec-14 19:30N 55°33' E 014°21'0 0.0
2014-Dec-14 18:30N 55°33' E 014°21'0 0.0
2014-Dec-14 17:30N 55°33' E 014°21'0 0.0
2014-Dec-14 16:30N 55°33' E 014°21'0 0.0
2014-Dec-14 15:24N 55°33' E 014°21'0 0.0
2014-Dec-14 14:30N 55°33' E 014°21'0 0.0
2014-Dec-14 13:30N 55°33' E 014°21'0 0.0
2014-Dec-14 12:30N 55°33' E 014°21'0 0.0
2014-Dec-14 11:30N 55°33' E 014°21'0 0.0
2014-Dec-14 10:30N 55°33' E 014°21'0 0.0
2014-Dec-14 09:30N 55°33' E 014°21'0 0.0
2014-Dec-14 08:30N 55°33' E 014°21'0 0.0
2014-Dec-14 07:30N 55°33' E 014°21'0 0.0
2014-Dec-14 06:24N 55°33' E 014°21'0 0.0
2014-Dec-14 05:30N 55°33' E 014°21'0 0.0
2014-Dec-14 04:30N 55°33' E 014°21'0 0.0
2014-Dec-14 03:24N 55°33' E 014°21'0 0.0
2014-Dec-14 02:24N 55°33' E 014°21'0 0.0
2014-Dec-14 01:30N 55°33' E 014°21'0 0.0
2014-Dec-14 00:30N 55°33' E 014°21'0 0.0
2014-Dec-13 23:18N 55°33' E 014°21'0 0.0
2014-Dec-13 22:30N 55°33' E 014°21'0 0.0
2014-Dec-13 21:30N 55°33' E 014°21'0 0.0
2014-Dec-13 20:30N 55°33' E 014°21'0 0.0
2014-Dec-13 19:24N 55°33' E 014°21'0 0.0
2014-Dec-13 18:30N 55°33' E 014°21'0 0.0
2014-Dec-13 17:24N 55°33' E 014°21'0 0.0
2014-Dec-13 16:30N 55°33' E 014°21'0 0.0
2014-Dec-13 15:30N 55°33' E 014°21'0 0.0
2014-Dec-13 14:30N 55°33' E 014°21'0 0.0
2014-Dec-13 13:30N 55°33' E 014°21'0 0.0
2014-Dec-13 12:30N 55°33' E 014°21'0 0.0
2014-Dec-13 11:31N 55°33' E 014°21'0 0.0
2014-Dec-13 10:31N 55°33' E 014°21'0 0.0
2014-Dec-13 09:19N 55°33' E 014°21'0 0.0
2014-Dec-13 08:31N 55°33' E 014°21'0 0.0
2014-Dec-13 07:07N 55°33' E 014°21'0 0.0
2014-Dec-13 06:19N 55°33' E 014°21'0 0.0
2014-Dec-13 05:31N 55°33' E 014°21'0 0.0
2014-Dec-13 04:31N 55°33' E 014°21'0 0.0
2014-Dec-13 03:31N 55°33' E 014°21'0 0.0
2014-Dec-13 02:13N 55°33' E 014°21'0 0.0
2014-Dec-13 01:31N 55°33' E 014°21'0 0.0
2014-Dec-13 00:13N 55°33' E 014°21'0 0.0
2014-Dec-12 23:25N 55°33' E 014°21'  

Dump ship's entire track history